Cooperstown, Illinois
Current Conditions -  °F | °C
As of 5:35 AM on Tuesday 21 Oct 2014 (Local Time) from KPPQ Reporting Station
Clear Clear  
Wind Chill: 45°   Ceiling: Unl
Heat Index: 45°   Visibility: 10mi
Dew Point: 41°   Wind: 3mph
Humidity: 87%   Direction: 340°NNW
Pressure: 30.08"   Gusts: NA
Location:  39.9985°N, 90.6925°W
Report Text: KPPQ 211035Z AUTO 34003KT 10SM CLR 07/05 A3008 RMK AO2 T00720052
Loading
Personal Weather Stations






























Interactive Weather Map
Tropical Storm Tracking
New forecast layout! Learn more

10-Day Weather Forecast

Advertisements
Track Severe Weather on mobile